Time;durP1;ratioP1;P1;durP2;ratioP2;P2;SDS_P1;SDS_P2;PMS_P1;PMS_P2;Temp;Humidity;BMP_temperature;BMP_pressure;BME280_temperature;BME280_humidity;BME280_pressure;Samples;Min_cycle;Max_cycle;Signal;HPM_P1;HPM_P2
2022/01/11 00:17:06;;;;;;;1.40;0.63;;;0.70;93.00;;;;;;6181698;23;20053;-86
2022/01/11 00:28:40;;;;;;;1.60;0.82;;;0.50;93.00;;;;;;5887900;24;20232;-86
2022/01/11 01:10:35;;;;;;;1.38;0.88;;;0.40;93.10;;;;;;6339935;22;20056;-85
2022/01/11 01:13:32;;;;;;;1.65;0.88;;;0.50;93.10;;;;;;6255889;22;20043;-86
2022/01/11 01:16:11;;;;;;;1.65;0.88;;;0.50;93.00;;;;;;6129302;23;20053;-86
2022/01/11 01:19:12;;;;;;;3.47;1.45;;;0.50;93.00;;;;;;6089603;23;20054;-87
2022/01/11 01:32:50;;;;;;;1.60;0.77;;;0.30;93.10;;;;;;5791344;24;20028;-87
2022/01/11 01:36:21;;;;;;;1.75;0.77;;;0.40;93.10;;;;;;5689853;25;20027;-86
2022/01/11 01:39:25;;;;;;;1.20;0.60;;;0.60;93.00;;;;;;5566473;25;20036;-86
2022/01/11 01:41:52;;;;;;;0.75;0.60;;;0.50;92.90;;;;;;5564175;25;20032;-85
2022/01/11 01:44:26;;;;;;;1.67;0.90;;;0.50;92.90;;;;;;5551144;25;20036;-85
2022/01/11 01:46:54;;;;;;;1.30;0.70;;;0.60;92.90;;;;;;5559126;25;20034;-86
2022/01/11 01:52:58;;;;;;;1.98;0.80;;;0.80;92.90;;;;;;5669346;25;20026;-86
2022/01/11 01:56:07;;;;;;;1.83;0.85;;;0.70;92.90;;;;;;5644160;25;20026;-85
2022/01/11 01:59:34;;;;;;;2.17;0.70;;;0.70;92.90;;;;;;5638086;25;20026;-86
2022/01/11 02:03:03;;;;;;;1.45;0.68;;;0.70;92.90;;;;;;5650509;25;20026;-86
2022/01/11 02:05:35;;;;;;;1.40;0.70;;;0.80;92.90;;;;;;5616446;25;20027;-86
2022/01/11 02:11:36;;;;;;;2.20;0.90;;;0.70;92.80;;;;;;5661836;25;20022;-87
2022/01/11 02:18:29;;;;;;;1.50;0.90;;;0.70;92.90;;;;;;5653742;25;20021;-86
2022/01/11 02:21:02;;;;;;;1.00;0.68;;;0.60;93.00;;;;;;5574710;25;20042;-86
2022/01/11 02:24:10;;;;;;;1.33;0.73;;;0.70;92.90;;;;;;5631420;25;20157;-85
2022/01/11 02:27:24;;;;;;;2.08;0.80;;;0.70;92.90;;;;;;5632633;25;20030;-86
2022/01/11 02:30:16;;;;;;;1.02;0.55;;;0.70;92.90;;;;;;5634836;25;20042;-86
2022/01/11 02:33:46;;;;;;;1.40;0.70;;;0.60;92.90;;;;;;5600389;25;20058;-86
2022/01/11 02:36:43;;;;;;;1.23;0.82;;;0.60;92.90;;;;;;5517794;25;20048;-86
2022/01/11 02:39:12;;;;;;;2.17;0.82;;;0.60;92.90;;;;;;5442401;26;20048;-85
2022/01/11 02:41:51;;;;;;;1.35;0.70;;;0.70;92.90;;;;;;5480317;25;20032;-86
2022/01/11 02:44:17;;;;;;;1.25;0.73;;;0.70;92.90;;;;;;5557689;25;20092;-87
2022/01/11 02:46:43;;;;;;;1.65;0.95;;;0.70;92.90;;;;;;5562229;25;20114;-87
2022/01/11 02:56:24;;;;;;;1.85;0.63;;;0.70;92.90;;;;;;5701039;25;20021;-86
2022/01/11 03:02:56;;;;;;;1.80;0.90;;;0.70;92.90;;;;;;5800093;24;20099;-86
2022/01/11 03:06:02;;;;;;;1.40;0.80;;;0.70;92.90;;;;;;5775106;24;20541;-87
2022/01/11 03:18:06;;;;;;;1.48;0.60;;;0.60;93.20;;;;;;5701925;25;20407;-87
2022/01/11 03:21:11;;;;;;;2.45;0.93;;;0.70;93.00;;;;;;5716629;25;20021;-87
2022/01/11 03:28:03;;;;;;;3.03;1.38;;;0.50;92.90;;;;;;5610919;25;20022;-87
2022/01/11 03:31:00;;;;;;;2.80;1.38;;;0.50;92.90;;;;;;5627014;25;20022;-87
2022/01/11 03:33:56;;;;;;;2.85;1.00;;;0.50;93.00;;;;;;5644475;25;20113;-87
2022/01/11 03:36:30;;;;;;;2.47;1.27;;;0.50;92.90;;;;;;5617921;25;20026;-88
2022/01/11 03:39:11;;;;;;;2.60;1.15;;;0.50;93.00;;;;;;5492559;26;20028;-87
2022/01/11 03:41:39;;;;;;;2.33;0.90;;;0.50;93.00;;;;;;5496566;26;20057;-86
2022/01/11 03:44:09;;;;;;;2.17;1.05;;;0.60;93.00;;;;;;5476350;26;20025;-86
2022/01/11 03:46:34;;;;;;;2.25;1.33;;;0.60;93.00;;;;;;5465608;26;20029;-87
2022/01/11 03:49:00;;;;;;;2.17;0.90;;;0.70;93.00;;;;;;5516317;26;20016;-87
2022/01/11 03:51:35;;;;;;;2.33;1.13;;;0.70;92.90;;;;;;5525044;25;20356;-86
2022/01/11 03:54:08;;;;;;;2.10;0.90;;;0.70;92.90;;;;;;5521427;25;20490;-87
2022/01/11 03:56:37;;;;;;;2.53;1.20;;;0.70;92.90;;;;;;5538277;25;20027;-87
2022/01/11 03:59:07;;;;;;;2.28;0.90;;;0.70;92.90;;;;;;5574135;25;20030;-86
2022/01/11 04:02:13;;;;;;;2.88;1.17;;;0.70;92.90;;;;;;5635511;24;20799;-87
2022/01/11 04:05:06;;;;;;;2.00;0.98;;;0.80;93.00;;;;;;5791913;24;20019;-86
2022/01/11 04:08:00;;;;;;;1.92;1.20;;;0.80;92.90;;;;;;5840025;24;20018;-87
2022/01/11 04:10:46;;;;;;;2.67;1.30;;;0.80;92.90;;;;;;5881186;24;20025;-86
2022/01/11 04:13:17;;;;;;;2.65;1.17;;;0.90;92.90;;;;;;5894724;24;20149;-86
2022/01/11 04:16:26;;;;;;;1.87;0.97;;;0.80;92.80;;;;;;5886011;24;20052;-86
2022/01/11 04:18:53;;;;;;;2.15;1.08;;;0.90;92.90;;;;;;5846508;24;20092;-86
2022/01/11 04:21:31;;;;;;;2.50;1.20;;;0.90;92.90;;;;;;5813220;24;20492;-86
2022/01/11 04:24:03;;;;;;;1.88;1.00;;;0.90;92.90;;;;;;5809821;24;20030;-86
2022/01/11 04:26:50;;;;;;;;;;;0.90;92.90;;;;;;5830804;24;20471;-87
2022/01/11 04:29:20;;;;;;;1.23;0.75;;;0.90;92.80;;;;;;5808262;24;19912;-86
2022/01/11 04:31:48;;;;;;;1.92;1.00;;;0.90;92.90;;;;;;5784521;24;20026;-86
2022/01/11 04:34:32;;;;;;;1.25;0.75;;;0.90;92.90;;;;;;5746792;24;20032;-86
2022/01/11 04:37:08;;;;;;;1.42;0.90;;;0.90;92.90;;;;;;5741885;24;20021;-87
2022/01/11 04:39:53;;;;;;;1.95;1.08;;;0.90;92.90;;;;;;5751922;24;20032;-87
2022/01/11 04:42:18;;;;;;;2.00;1.17;;;0.90;92.90;;;;;;5697118;25;20474;-85
2022/01/11 04:44:44;;;;;;;2.38;1.00;;;0.90;92.90;;;;;;5694826;25;20022;-86
2022/01/11 04:48:01;;;;;;;3.47;1.40;;;0.90;92.90;;;;;;5679277;25;20088;-87
2022/01/11 04:50:46;;;;;;;2.33;1.30;;;0.80;92.80;;;;;;5779257;24;20067;-86
2022/01/11 04:53:14;;;;;;;2.65;1.15;;;0.80;92.90;;;;;;5798615;24;20024;-86
2022/01/11 04:56:06;;;;;;;2.80;1.45;;;0.80;92.90;;;;;;5763444;24;20085;-86
2022/01/11 04:58:37;;;;;;;2.72;1.30;;;0.80;92.90;;;;;;5732920;25;20064;-86
2022/01/11 05:01:11;;;;;;;1.83;0.85;;;0.80;92.90;;;;;;5672906;25;20026;-86
2022/01/11 05:03:43;;;;;;;1.95;1.10;;;1.00;92.90;;;;;;5694708;25;20401;-86
2022/01/11 05:06:12;;;;;;;;;;;0.80;92.90;;;;;;5792255;24;20034;-86
2022/01/11 05:08:42;;;;;;;1.38;0.75;;;1.00;92.90;;;;;;5810044;24;20315;-86
2022/01/11 05:11:09;;;;;;;2.90;1.40;;;0.90;92.80;;;;;;5820071;24;20019;-86
2022/01/11 05:13:35;;;;;;;3.25;1.60;;;0.90;92.80;;;;;;5847350;24;20033;-87
2022/01/11 05:16:02;;;;;;;1.77;0.93;;;0.90;92.80;;;;;;5859257;24;20080;-87
2022/01/11 05:18:29;;;;;;;1.98;1.13;;;0.80;92.80;;;;;;5872142;24;20026;-86
2022/01/11 05:21:24;;;;;;;1.92;1.08;;;0.90;92.90;;;;;;5916809;24;20021;-87
2022/01/11 05:23:52;;;;;;;2.90;1.55;;;0.90;92.90;;;;;;5906658;24;20021;-86
2022/01/11 05:26:28;;;;;;;2.75;1.17;;;1.00;92.90;;;;;;5870855;24;20542;-86
2022/01/11 05:29:11;;;;;;;2.58;1.20;;;0.90;92.90;;;;;;5897764;24;20101;-86
2022/01/11 05:31:45;;;;;;;1.95;1.00;;;0.90;93.00;;;;;;5940826;24;20024;-86
2022/01/11 05:34:16;;;;;;;1.73;0.80;;;0.80;92.90;;;;;;5930292;24;20017;-85
2022/01/11 05:36:42;;;;;;;2.40;1.10;;;0.80;93.00;;;;;;5941508;23;20016;-85
2022/01/11 05:39:08;;;;;;;2.13;0.98;;;0.80;93.00;;;;;;5927073;24;20017;-84
2022/01/11 05:41:36;;;;;;;1.45;0.70;;;0.80;93.10;;;;;;5934659;24;19915;-85
2022/01/11 05:44:02;;;;;;;2.55;1.10;;;0.80;92.90;;;;;;5931844;24;20045;-84
2022/01/11 05:46:28;;;;;;;1.70;0.90;;;0.70;92.90;;;;;;5930994;24;20025;-85
2022/01/11 05:48:54;;;;;;;1.65;1.02;;;0.80;93.00;;;;;;5928218;24;20017;-85
2022/01/11 05:51:24;;;;;;;2.13;0.90;;;0.80;93.00;;;;;;5900527;24;20085;-85
2022/01/11 05:53:51;;;;;;;1.70;1.00;;;0.90;93.00;;;;;;5879072;24;20473;-84
2022/01/11 05:56:16;;;;;;;1.30;0.88;;;0.80;93.00;;;;;;5867196;24;20470;-85
2022/01/11 05:58:42;;;;;;;2.38;0.85;;;0.80;93.00;;;;;;5963112;23;20020;-85
2022/01/11 06:01:08;;;;;;;1.70;0.93;;;0.80;93.00;;;;;;6008596;23;20524;-84
2022/01/11 06:03:34;;;;;;;2.38;0.88;;;0.80;93.00;;;;;;6064473;23;20098;-84
2022/01/11 06:06:00;;;;;;;2.03;1.17;;;0.70;93.00;;;;;;6070276;23;20038;-84
2022/01/11 06:08:26;;;;;;;1.52;0.90;;;0.80;93.10;;;;;;6047094;23;20467;-83
2022/01/11 06:10:52;;;;;;;1.73;0.82;;;0.70;93.10;;;;;;6119875;23;20014;-84
2022/01/11 06:13:20;;;;;;;2.25;1.10;;;0.70;93.10;;;;;;6128112;23;20033;-84
2022/01/11 06:15:45;;;;;;;1.73;0.90;;;0.60;93.00;;;;;;6152430;23;20149;-86
2022/01/11 06:18:11;;;;;;;1.33;0.70;;;0.70;93.10;;;;;;6140703;23;20044;-84
2022/01/11 06:20:37;;;;;;;2.50;1.13;;;0.70;93.10;;;;;;6101972;23;20018;-85
2022/01/11 06:23:03;;;;;;;3.28;1.10;;;0.70;93.10;;;;;;6220028;22;20016;-85
2022/01/11 06:25:28;;;;;;;2.78;1.15;;;0.60;93.10;;;;;;6247657;22;20050;-84
2022/01/11 06:27:57;;;;;;;2.15;1.08;;;0.70;93.10;;;;;;6246962;22;20023;-85
2022/01/11 06:30:22;;;;;;;1.40;0.80;;;0.70;93.10;;;;;;6224105;22;20000;-85
2022/01/11 06:32:48;;;;;;;2.47;1.00;;;0.70;93.10;;;;;;6263500;22;20018;-85
2022/01/11 06:35:17;;;;;;;1.75;0.90;;;0.60;93.10;;;;;;6273687;22;20026;-85
2022/01/11 06:37:44;;;;;;;1.45;0.85;;;0.80;93.10;;;;;;6247509;22;20086;-85
2022/01/11 06:40:14;;;;;;;1.10;0.90;;;0.70;93.10;;;;;;6246695;22;20012;-85
2022/01/11 06:42:40;;;;;;;1.92;1.10;;;0.70;93.10;;;;;;6246775;22;20012;-84
2022/01/11 06:45:07;;;;;;;1.88;0.90;;;0.70;93.00;;;;;;6274626;22;20007;-85
2022/01/11 06:47:32;;;;;;;2.08;1.00;;;0.70;93.00;;;;;;6247451;22;20015;-85
2022/01/11 06:49:58;;;;;;;1.10;0.70;;;0.60;93.00;;;;;;6246513;22;20404;-85
2022/01/11 06:52:24;;;;;;;2.10;1.20;;;0.70;93.00;;;;;;6245674;22;20011;-84
2022/01/11 06:54:59;;;;;;;2.28;1.23;;;0.70;93.00;;;;;;6274544;22;20014;-84
2022/01/11 06:57:27;;;;;;;1.92;0.82;;;0.80;93.10;;;;;;6224843;22;20456;-83
2022/01/11 06:59:53;;;;;;;2.70;1.17;;;0.70;93.00;;;;;;6273875;22;20011;-84
2022/01/11 07:02:19;;;;;;;2.17;1.15;;;0.70;93.00;;;;;;6273816;22;20017;-84
2022/01/11 07:04:44;;;;;;;1.83;1.00;;;0.70;93.00;;;;;;6275558;22;20328;-85
2022/01/11 07:07:10;;;;;;;2.35;1.13;;;0.60;92.90;;;;;;6275861;22;20443;-81
2022/01/11 07:09:36;;;;;;;3.00;1.38;;;0.60;92.90;;;;;;6280724;22;20313;-80
2022/01/11 07:12:02;;;;;;;1.58;0.80;;;0.50;92.90;;;;;;6281494;22;20023;-78
2022/01/11 07:14:28;;;;;;;1.95;0.98;;;0.60;93.00;;;;;;6280126;22;20011;-79
2022/01/11 07:16:54;;;;;;;2.08;1.13;;;0.60;93.00;;;;;;6280333;22;20392;-80
2022/01/11 07:19:20;;;;;;;2.20;1.10;;;0.60;93.00;;;;;;6278527;22;20087;-80
2022/01/11 07:21:46;;;;;;;2.30;1.17;;;0.50;93.00;;;;;;6280930;22;20018;-80
2022/01/11 07:24:20;;;;;;;1.63;0.80;;;0.60;93.10;;;;;;6275702;22;20015;-83
2022/01/11 07:26:48;;;;;;;3.08;1.30;;;0.50;93.10;;;;;;6244277;23;20491;-82
2022/01/11 07:29:14;;;;;;;2.95;1.27;;;0.50;93.10;;;;;;6217044;23;20035;-79
2022/01/11 07:31:41;;;;;;;3.38;1.40;;;0.50;93.10;;;;;;6167333;23;20426;-79
2022/01/11 07:34:46;;;;;;;3.67;1.35;;;0.40;93.10;;;;;;6182468;23;20103;-81
2022/01/11 07:37:14;;;;;;;2.63;1.27;;;0.50;93.10;;;;;;6103870;23;20109;-80
2022/01/11 07:39:40;;;;;;;3.22;1.38;;;0.50;93.10;;;;;;6095259;23;20109;-80
2022/01/11 07:42:05;;;;;;;2.55;0.90;;;0.40;93.00;;;;;;6049159;23;20116;-80
2022/01/11 07:44:31;;;;;;;2.80;1.40;;;0.50;93.10;;;;;;6046038;23;20090;-83
2022/01/11 07:46:57;;;;;;;2.88;1.02;;;0.40;93.10;;;;;;6068714;23;20108;-82
2022/01/11 07:49:26;;;;;;;2.72;1.40;;;0.40;93.10;;;;;;6069130;23;20011;-82
2022/01/11 07:56:28;;;;;;;1.55;0.80;;;0.40;93.10;;;;;;6086413;23;20142;-79
2022/01/11 08:05:44;;;;;;;2.58;1.13;;;0.40;93.00;;;;;;6023906;23;20074;-82
2022/01/11 08:08:10;;;;;;;2.92;1.10;;;0.40;93.10;;;;;;6075084;23;20026;-81
2022/01/11 08:10:42;;;;;;;2.30;1.10;;;0.40;93.10;;;;;;6045131;23;20478;-80
2022/01/11 08:13:10;;;;;;;2.50;1.35;;;0.40;93.10;;;;;;6092987;23;20101;-79
2022/01/11 08:15:39;;;;;;;2.45;1.02;;;0.40;93.00;;;;;;6093061;23;20021;-81
2022/01/11 08:18:05;;;;;;;2.08;1.20;;;0.50;93.10;;;;;;6093024;23;20165;-81
2022/01/11 08:20:31;;;;;;;2.10;1.00;;;0.50;93.10;;;;;;6093284;23;20014;-81
2022/01/11 08:22:57;;;;;;;2.17;1.17;;;0.50;93.00;;;;;;6089529;23;20019;-81
2022/01/11 08:25:24;;;;;;;1.80;1.02;;;0.50;93.00;;;;;;6117366;23;20114;-80
2022/01/11 08:27:51;;;;;;;3.30;1.40;;;0.50;93.00;;;;;;6066202;23;20019;-81
2022/01/11 08:30:24;;;;;;;2.53;1.10;;;0.60;93.00;;;;;;6110479;23;20025;-81
2022/01/11 08:32:50;;;;;;;1.83;0.77;;;0.60;93.00;;;;;;6127081;23;20023;-82
2022/01/11 08:35:30;;;;;;;2.47;1.17;;;0.60;92.90;;;;;;6151902;23;20159;-78
2022/01/11 08:37:57;;;;;;;3.28;0.80;;;0.70;92.90;;;;;;6098596;23;20009;-78
2022/01/11 08:40:26;;;;;;;1.05;0.70;;;0.70;92.90;;;;;;6247372;22;20015;-79
2022/01/11 08:43:28;;;;;;;1.80;0.98;;;0.80;92.90;;;;;;6269117;22;20043;-78
2022/01/11 08:46:36;;;;;;;2.20;1.20;;;0.80;92.80;;;;;;6233848;22;20130;-77
2022/01/11 08:49:03;;;;;;;3.22;1.20;;;0.90;92.90;;;;;;6205860;23;20027;-77
2022/01/11 08:51:28;;;;;;;1.85;0.90;;;0.90;93.10;;;;;;6217299;23;20191;-75
2022/01/11 08:53:54;;;;;;;1.52;0.93;;;1.00;92.80;;;;;;6191346;23;20468;-76
2022/01/11 08:56:20;;;;;;;2.10;1.02;;;1.00;92.70;;;;;;6191607;23;20099;-76
2022/01/11 08:58:46;;;;;;;1.67;0.70;;;1.10;92.70;;;;;;6216102;23;20016;-76
2022/01/11 09:01:12;;;;;;;1.50;0.77;;;1.10;92.70;;;;;;6166432;23;20016;-75
2022/01/11 09:03:38;;;;;;;1.63;0.88;;;1.10;92.70;;;;;;6242893;23;20035;-75
2022/01/11 09:06:07;;;;;;;2.13;1.10;;;1.20;92.70;;;;;;6192838;23;20012;-75
2022/01/11 09:08:35;;;;;;;1.83;0.85;;;1.20;92.90;;;;;;6218013;23;20016;-75
2022/01/11 09:11:00;;;;;;;1.35;1.00;;;1.20;92.60;;;;;;6192474;23;20012;-75
2022/01/11 09:13:27;;;;;;;1.52;0.85;;;1.20;92.70;;;;;;6231719;22;20469;-75
2022/01/11 09:15:53;;;;;;;2.25;1.30;;;1.30;92.70;;;;;;6272268;22;20098;-76
2022/01/11 09:18:19;;;;;;;2.90;1.40;;;1.30;92.70;;;;;;6275939;22;20069;-76
2022/01/11 09:20:44;;;;;;;2.47;1.10;;;1.40;92.60;;;;;;6276330;22;20414;-77
2022/01/11 09:23:10;;;;;;;1.48;0.93;;;1.40;92.60;;;;;;6274386;22;20008;-78
2022/01/11 09:25:38;;;;;;;2.50;1.10;;;1.50;92.60;;;;;;6275019;22;20003;-77
2022/01/11 09:28:04;;;;;;;2.72;1.30;;;1.60;92.50;;;;;;6273446;22;20070;-77
2022/01/11 09:30:30;;;;;;;2.03;1.00;;;1.60;92.50;;;;;;6276553;22;20042;-77
2022/01/11 09:32:56;;;;;;;1.50;1.00;;;1.70;92.50;;;;;;6274477;22;20011;-76
2022/01/11 09:35:21;;;;;;;2.13;1.13;;;1.70;92.50;;;;;;6274486;22;20063;-76
2022/01/11 09:37:49;;;;;;;2.15;1.00;;;1.80;92.50;;;;;;6276595;22;20428;-76
2022/01/11 09:40:16;;;;;;;2.88;1.40;;;1.80;92.40;;;;;;6275875;22;20096;-77
2022/01/11 09:42:42;;;;;;;1.88;0.90;;;1.80;92.40;;;;;;6274372;22;20031;-77
2022/01/11 09:45:10;;;;;;;2.28;1.45;;;1.80;92.40;;;;;;6274466;22;20034;-77
2022/01/11 09:47:38;;;;;;;1.67;0.90;;;1.90;92.40;;;;;;6274173;22;19999;-77
2022/01/11 09:50:06;;;;;;;2.67;1.30;;;1.90;92.40;;;;;;6274610;22;20081;-77
2022/01/11 09:52:32;;;;;;;1.98;1.20;;;2.00;92.40;;;;;;6274435;22;20069;-77
2022/01/11 09:54:58;;;;;;;0.90;0.70;;;2.10;92.40;;;;;;6248885;22;20011;-77
2022/01/11 09:57:24;;;;;;;3.08;1.40;;;2.10;92.30;;;;;;6274144;22;20019;-77
2022/01/11 09:59:50;;;;;;;2.85;1.30;;;2.10;92.30;;;;;;6276297;22;20012;-77
2022/01/11 10:02:16;;;;;;;2.83;1.45;;;2.20;92.30;;;;;;6273955;22;20008;-77
2022/01/11 10:04:44;;;;;;;2.30;1.17;;;2.30;92.30;;;;;;6275789;22;20008;-78
2022/01/11 10:07:11;;;;;;;2.35;1.20;;;2.20;92.30;;;;;;6248768;22;20039;-77
2022/01/11 10:09:48;;;;;;;1.77;1.30;;;2.30;92.30;;;;;;6275813;22;20007;-77
2022/01/11 10:12:15;;;;;;;2.60;1.30;;;2.20;92.20;;;;;;6270006;22;20012;-76
2022/01/11 10:14:58;;;;;;;2.80;1.60;;;2.30;92.30;;;;;;6248450;22;20003;-77
2022/01/11 10:17:29;;;;;;;2.65;1.30;;;2.40;92.30;;;;;;6274369;22;20011;-77
2022/01/11 10:20:10;;;;;;;2.00;1.27;;;2.40;92.30;;;;;;6273408;22;20032;-77
2022/01/11 10:22:47;;;;;;;1.73;0.98;;;2.50;92.30;;;;;;6273859;22;20065;-77
2022/01/11 10:25:13;;;;;;;2.17;1.00;;;2.50;92.30;;;;;;6249036;22;20008;-77
2022/01/11 10:27:39;;;;;;;3.13;1.20;;;2.50;92.20;;;;;;6275794;22;20015;-77
2022/01/11 10:30:09;;;;;;;1.83;1.15;;;2.60;92.20;;;;;;6248766;22;20026;-77
2022/01/11 10:32:40;;;;;;;1.67;1.00;;;2.60;92.20;;;;;;6248304;22;20091;-77
2022/01/11 10:35:17;;;;;;;2.08;1.00;;;2.60;92.20;;;;;;6275637;22;20020;-77
2022/01/11 10:37:46;;;;;;;1.70;1.00;;;2.60;92.20;;;;;;6275789;22;20011;-77
2022/01/11 10:40:16;;;;;;;3.13;1.33;;;2.70;92.20;;;;;;6274301;22;20007;-77
2022/01/11 10:42:49;;;;;;;3.15;1.27;;;2.60;92.10;;;;;;6248363;22;20424;-77
2022/01/11 10:45:29;;;;;;;2.15;1.05;;;2.70;92.20;;;;;;6274170;22;20154;-77
2022/01/11 10:47:59;;;;;;;2.30;1.17;;;2.70;92.20;;;;;;6250659;22;20011;-77
2022/01/11 10:50:28;;;;;;;1.40;0.93;;;2.80;92.20;;;;;;6273694;22;20339;-77
2022/01/11 10:52:56;;;;;;;3.00;1.45;;;2.90;92.20;;;;;;6248625;22;20011;-77
2022/01/11 10:55:23;;;;;;;3.10;1.33;;;3.00;92.20;;;;;;6273815;22;20008;-77
2022/01/11 10:57:52;;;;;;;4.03;1.48;;;2.90;92.10;;;;;;6275431;22;20034;-77
2022/01/11 11:00:25;;;;;;;2.75;1.15;;;3.00;92.20;;;;;;6248169;22;20094;-77
2022/01/11 11:02:56;;;;;;;4.30;1.45;;;3.00;92.10;;;;;;6248194;22;20331;-77
2022/01/11 11:05:26;;;;;;;2.17;1.13;;;3.10;92.10;;;;;;6273417;22;20083;-77
2022/01/11 11:07:56;;;;;;;4.57;1.42;;;3.10;92.10;;;;;;6247983;22;20015;-77
2022/01/11 11:10:41;;;;;;;2.13;1.10;;;3.10;92.10;;;;;;6248420;22;20007;-77
2022/01/11 11:13:10;;;;;;;2.28;1.30;;;3.10;92.00;;;;;;6273773;22;20090;-78
2022/01/11 11:15:39;;;;;;;3.90;1.70;;;3.20;92.00;;;;;;6274172;22;20057;-78
2022/01/11 11:18:19;;;;;;;3.65;1.45;;;3.20;92.00;;;;;;6275216;22;20454;-77
2022/01/11 11:20:45;;;;;;;1.90;0.93;;;3.20;92.00;;;;;;6248005;22;20107;-78
2022/01/11 11:23:12;;;;;;;1.80;1.08;;;3.30;92.00;;;;;;6274033;22;20015;-77
2022/01/11 11:25:40;;;;;;;3.40;1.48;;;3.30;92.00;;;;;;6272202;22;20396;-78
2022/01/11 11:28:06;;;;;;;3.45;1.60;;;3.40;91.90;;;;;;6275141;22;20103;-78
2022/01/11 11:30:32;;;;;;;3.08;1.35;;;3.40;91.90;;;;;;6248259;22;20018;-77
2022/01/11 11:33:00;;;;;;;2.15;0.98;;;3.50;92.00;;;;;;6273897;22;20008;-78
2022/01/11 11:35:26;;;;;;;3.80;1.90;;;3.50;91.90;;;;;;6273717;22;20102;-78
2022/01/11 11:37:58;;;;;;;3.35;1.50;;;3.50;91.90;;;;;;6248399;22;20046;-78
2022/01/11 11:40:27;;;;;;;4.03;1.73;;;3.60;91.90;;;;;;6247615;22;20015;-78
2022/01/11 11:42:59;;;;;;;5.35;2.28;;;3.60;91.80;;;;;;6247955;22;20058;-78
2022/01/11 11:45:31;;;;;;;6.10;2.40;;;3.60;91.70;;;;;;6248113;22;20004;-79
2022/01/11 11:48:09;;;;;;;4.70;2.20;;;3.60;91.70;;;;;;6261645;22;20095;-78
2022/01/11 11:50:57;;;;;;;6.40;2.55;;;3.60;91.60;;;;;;6248031;22;20014;-78
2022/01/11 11:53:30;;;;;;;6.35;2.75;;;3.80;91.60;;;;;;6248671;22;20016;-79
2022/01/11 11:56:20;;;;;;;5.18;2.40;;;3.70;91.60;;;;;;6221610;22;20012;-78
2022/01/11 11:58:49;;;;;;;7.60;3.10;;;3.80;91.50;;;;;;6247696;22;20015;-78
2022/01/11 12:01:42;;;;;;;6.47;2.95;;;3.80;91.40;;;;;;6247383;22;20023;-78
2022/01/11 12:04:10;;;;;;;5.25;2.60;;;3.90;91.40;;;;;;6249055;22;20015;-79
2022/01/11 12:06:39;;;;;;;6.20;2.47;;;4.00;91.40;;;;;;6241520;22;20396;-78
2022/01/11 12:09:08;;;;;;;4.90;2.38;;;4.00;91.40;;;;;;6248327;22;20033;-79
2022/01/11 12:11:38;;;;;;;5.97;2.70;;;4.00;91.30;;;;;;6191100;23;20016;-78
2022/01/11 12:14:05;;;;;;;5.75;2.40;;;3.90;91.30;;;;;;6187839;23;20512;-79
2022/01/11 12:16:39;;;;;;;3.03;1.63;;;4.00;91.30;;;;;;6191140;23;20039;-79
2022/01/11 12:19:09;;;;;;;5.00;2.38;;;4.10;91.40;;;;;;6188039;23;20019;-78
2022/01/11 12:22:05;;;;;;;5.25;2.35;;;4.10;91.30;;;;;;6184675;23;20044;-79
2022/01/11 12:24:46;;;;;;;4.50;2.08;;;4.10;91.60;;;;;;6195610;23;20332;-79
2022/01/11 12:27:15;;;;;;;4.65;1.75;;;4.10;91.30;;;;;;6191528;23;20016;-79
2022/01/11 12:30:03;;;;;;;3.72;1.98;;;4.20;91.30;;;;;;6191739;23;20019;-79
2022/01/11 12:32:33;;;;;;;4.30;2.22;;;4.20;91.30;;;;;;6216150;23;20012;-79
2022/01/11 12:35:08;;;;;;;4.47;2.20;;;4.20;91.30;;;;;;6191481;23;20535;-78
2022/01/11 12:37:39;;;;;;;3.83;1.85;;;4.20;91.30;;;;;;6191186;23;20111;-79
2022/01/11 12:40:29;;;;;;;4.03;1.67;;;4.20;91.20;;;;;;6188291;23;20464;-79
2022/01/11 12:43:05;;;;;;;4.55;2.10;;;4.20;91.20;;;;;;6227922;22;20018;-78
2022/01/11 12:46:03;;;;;;;4.85;2.25;;;4.20;91.20;;;;;;6247983;22;20008;-78
2022/01/11 12:48:53;;;;;;;5.72;2.30;;;4.20;91.20;;;;;;6220947;22;20491;-78
2022/01/11 12:51:28;;;;;;;3.33;1.70;;;4.10;91.20;;;;;;6247826;22;20078;-78
2022/01/11 12:54:12;;;;;;;4.10;2.00;;;4.20;91.20;;;;;;6247517;22;20051;-78
2022/01/11 12:56:39;;;;;;;4.15;1.77;;;4.20;91.20;;;;;;6247094;22;20523;-78
2022/01/11 12:59:05;;;;;;;4.05;2.15;;;4.30;91.20;;;;;;6247473;22;20020;-78
2022/01/11 13:01:31;;;;;;;4.28;2.30;;;4.20;91.20;;;;;;6236850;22;20012;-77
2022/01/11 13:04:00;;;;;;;3.45;1.60;;;4.30;91.20;;;;;;6247402;22;20008;-77
2022/01/11 13:06:32;;;;;;;3.28;1.80;;;4.20;91.20;;;;;;6238708;22;20035;-77
2022/01/11 13:09:02;;;;;;;4.15;2.08;;;4.30;91.20;;;;;;6247802;22;20091;-78
2022/01/11 13:11:28;;;;;;;3.15;1.60;;;4.20;91.20;;;;;;6247261;22;20031;-78
2022/01/11 13:14:31;;;;;;;4.28;1.90;;;4.30;91.20;;;;;;6246938;22;20096;-76
2022/01/11 13:17:00;;;;;;;3.10;1.60;;;4.30;91.20;;;;;;6272959;22;20018;-77
2022/01/11 13:19:31;;;;;;;3.03;1.48;;;4.30;91.20;;;;;;6273370;22;20442;-78
2022/01/11 13:22:06;;;;;;;4.95;1.90;;;4.30;91.20;;;;;;6275335;22;20012;-78
2022/01/11 13:24:36;;;;;;;4.07;1.73;;;4.30;91.20;;;;;;6269443;22;20011;-76
2022/01/11 13:27:11;;;;;;;2.70;1.60;;;4.30;91.20;;;;;;6270537;22;20008;-76
2022/01/11 13:29:38;;;;;;;4.22;1.63;;;4.30;91.20;;;;;;6256878;22;20004;-77
2022/01/11 13:32:05;;;;;;;3.40;1.50;;;4.30;91.30;;;;;;6298211;22;20011;-77
2022/01/11 13:34:32;;;;;;;2.85;1.23;;;4.30;91.30;;;;;;6284533;22;20008;-78
2022/01/11 13:36:59;;;;;;;3.38;1.52;;;4.30;91.30;;;;;;6284953;22;20003;-77
2022/01/11 13:39:34;;;;;;;2.95;1.40;;;4.30;91.30;;;;;;6289925;22;20073;-78
2022/01/11 13:42:05;;;;;;;3.38;1.40;;;4.20;91.30;;;;;;6296695;22;20046;-76
2022/01/11 13:44:37;;;;;;;3.88;1.63;;;4.20;91.30;;;;;;6248871;22;20035;-77
2022/01/11 13:47:07;;;;;;;2.50;1.20;;;4.20;91.30;;;;;;6277461;22;20038;-77
2022/01/11 13:49:38;;;;;;;2.28;1.30;;;4.20;91.30;;;;;;6275793;22;20081;-79
2022/01/11 13:52:11;;;;;;;3.75;1.40;;;4.30;91.30;;;;;;6273756;22;20092;-78
2022/01/11 13:54:41;;;;;;;2.97;1.48;;;4.30;91.30;;;;;;6249486;22;20019;-77
2022/01/11 13:57:12;;;;;;;3.33;1.52;;;4.30;91.20;;;;;;6274435;22;20323;-77
2022/01/11 13:59:38;;;;;;;2.90;1.42;;;4.30;91.30;;;;;;6274119;22;20011;-80
2022/01/11 14:02:33;;;;;;;3.42;1.40;;;4.50;91.30;;;;;;6271770;22;20026;-80
2022/01/11 14:05:29;;;;;;;4.60;1.85;;;4.60;91.20;;;;;;6222612;22;20039;-77
2022/01/11 14:07:59;;;;;;;2.25;1.20;;;4.70;91.00;;;;;;6124554;23;20108;-81
2022/01/11 14:10:28;;;;;;;2.63;1.38;;;4.80;90.90;;;;;;6152470;23;20162;-82
2022/01/11 14:12:54;;;;;;;2.83;1.60;;;4.90;90.70;;;;;;6152120;23;20125;-82
2022/01/11 14:15:50;;;;;;;3.20;1.45;;;4.80;90.70;;;;;;6151685;23;21067;-83
2022/01/11 14:18:16;;;;;;;2.42;1.30;;;4.90;90.70;;;;;;6038567;23;20043;-82
2022/01/11 14:24:05;;;;;;;3.22;1.40;;;4.80;90.70;;;;;;6036978;23;20114;-82
2022/01/11 14:26:34;;;;;;;2.90;1.63;;;4.70;90.70;;;;;;6036672;23;20043;-82
2022/01/11 14:29:00;;;;;;;2.42;1.38;;;4.70;90.80;;;;;;6036380;23;20022;-79
2022/01/11 14:31:29;;;;;;;2.83;1.48;;;4.60;90.90;;;;;;6036911;23;20352;-81
2022/01/11 14:34:06;;;;;;;3.28;1.52;;;4.60;90.90;;;;;;6054897;23;20019;-79
2022/01/11 14:36:32;;;;;;;2.53;1.17;;;4.50;90.90;;;;;;6029218;23;20451;-77
2022/01/11 14:39:11;;;;;;;2.35;1.10;;;4.50;91.00;;;;;;6098696;23;20024;-77
2022/01/11 14:41:48;;;;;;;2.50;1.08;;;4.40;91.00;;;;;;6080058;23;20017;-78
2022/01/11 14:44:20;;;;;;;2.85;1.30;;;4.40;91.10;;;;;;6079764;23;20112;-78
2022/01/11 14:46:53;;;;;;;1.95;1.10;;;4.40;91.20;;;;;;6103346;23;20021;-77
2022/01/11 14:49:24;;;;;;;2.60;1.15;;;4.60;91.40;;;;;;6131918;23;20099;-79
2022/01/11 14:51:53;;;;;;;2.65;1.38;;;5.10;90.90;;;;;;6190645;22;20026;-80
2022/01/11 14:54:24;;;;;;;2.35;1.20;;;5.30;90.30;;;;;;6197743;22;20102;-79
2022/01/11 14:56:53;;;;;;;3.40;1.40;;;5.40;90.00;;;;;;6225195;22;20461;-79
2022/01/11 14:59:21;;;;;;;3.00;1.42;;;5.50;89.60;;;;;;6246975;22;20442;-79
2022/01/11 15:01:51;;;;;;;3.05;1.27;;;5.50;89.30;;;;;;6248820;22;20014;-79
2022/01/11 15:04:20;;;;;;;3.00;1.50;;;5.50;89.70;;;;;;6243641;22;20023;-79
2022/01/11 15:06:57;;;;;;;1.77;1.10;;;5.60;89.60;;;;;;6199168;22;20015;-76
2022/01/11 15:09:29;;;;;;;3.17;1.40;;;5.70;89.30;;;;;;6238278;22;20008;-78
2022/01/11 15:11:58;;;;;;;2.88;1.25;;;5.60;89.20;;;;;;6248158;22;20027;-78
2022/01/11 15:14:34;;;;;;;1.73;1.05;;;5.50;89.30;;;;;;6273784;22;20023;-78
2022/01/11 15:17:05;;;;;;;1.65;1.10;;;5.30;89.60;;;;;;6274116;22;20071;-79
2022/01/11 15:19:31;;;;;;;3.60;1.50;;;5.30;90.10;;;;;;6220272;22;20439;-81
2022/01/11 15:21:57;;;;;;;2.83;1.50;;;4.90;90.20;;;;;;6273937;22;20031;-79
2022/01/11 15:24:26;;;;;;;2.45;1.30;;;4.90;90.50;;;;;;6273574;22;20061;-81
2022/01/11 15:26:54;;;;;;;1.85;1.05;;;4.70;90.70;;;;;;6248033;22;20011;-79
2022/01/11 15:29:25;;;;;;;2.80;0.98;;;4.60;90.80;;;;;;6247638;22;20062;-78
2022/01/11 15:31:52;;;;;;;1.42;0.90;;;4.60;91.00;;;;;;6273933;22;20011;-77
2022/01/11 15:34:19;;;;;;;1.75;0.90;;;4.50;91.10;;;;;;6273471;22;20133;-77
2022/01/11 15:36:45;;;;;;;1.88;1.20;;;4.40;91.10;;;;;;6272681;22;20086;-78